Flight Track Log - Related Links

Times and Time Zones

All times are in EDT time to prevent confusion due to time zone crossing. See the ASA708 flight status page for this flight to view local times or setup timezone preferences in your user account.

Time Position Orientation Groundspeed Altitude Reporting Facility
EDT Latitude Longitude Course Direction KTS MPH feet Rate Location/Type
Sun 08:59:34 AM 49.1833 -123.1667 270° West 40 46 100  Level Vancouver Center
Sun 09:00:34 AM 49.1833 -123.1833 270° West 20 23 100  Level Vancouver Center
Sun 09:03:34 AM 49.1667 -123.1833 180° South 20 23 100 300 Level Vancouver Center
Sun 09:06:34 AM 49.1667 -123.1167 122° Southeast 170 196 1,900 875 Climbing Vancouver Center
Sun 09:07:34 AM 49.1500 -123.0333 107° East 210 242 3,600 1,850 Climbing Vancouver Center
Sun 09:08:34 AM 49.1000 -122.9833 147° Southeast 260 299 5,600 1,700 Climbing Vancouver Center
Sun 09:09:34 AM 49.0167 -122.9833 180° South 280 322 7,000 1,700 Climbing Vancouver Center
Sun 09:10:34 AM 48.9333 -122.9833 180° South 290 334 9,000 1,900 Climbing Vancouver Center
Sun 09:11:34 AM 48.8500 -122.9833 180° South 290 334 10,800 2,100 Climbing Vancouver Center
Sun 09:12:34 AM 48.7667 -122.9333 158° South 340 391 13,200 2,500 Climbing Vancouver Center
Sun 09:13:34 AM 48.6667 -122.8833 162° South 360 414 15,800 2,350 Climbing Vancouver Center
Sun 09:14:34 AM 48.5667 -122.8333 162° South 380 437 17,900 2,258 Climbing Vancouver Center
Sun 09:15:07 AM 48.5328 -122.8239 170° South 376 433 19,300 2,426 Climbing Seattle Center
Sun 09:16:08 AM 48.4267 -122.7725 162° South 396 456 21,700 2,231 Climbing Seattle Center
Sun 09:17:08 AM 48.3161 -122.7194 162° South 410 472 23,800 1,884 Climbing Seattle Center
Sun 09:18:09 AM 48.2014 -122.6675 163° South 427 491 25,500 1,636 Climbing Seattle Center
Sun 09:19:09 AM 48.0836 -122.6125 163° South 441 507 27,100 1,600 Climbing Seattle Center
Sun 09:20:09 AM 47.9625 -122.5550 162° South 453 521 28,700 1,636 Climbing Seattle Center
Sun 09:21:10 AM 47.8394 -122.4964 162° South 462 532 30,400 1,636 Climbing Seattle Center
Sun 09:22:10 AM 47.7133 -122.4381 163° South 462 532 32,000 1,140 Climbing Seattle Center
Sun 09:23:11 AM 47.5878 -122.3817 163° South 465 535 32,700 496 Climbing Seattle Center
Sun 09:24:11 AM 47.4500 -122.3167 162° South 482 555 33,000 149 Climbing Seattle Center
Sun 09:25:12 AM 47.3181 -122.2886 172° South 482 555 33,000  Level Seattle Center
Sun 09:26:12 AM 47.1861 -122.2669 174° South 479 551 33,000  Level Seattle Center
Sun 09:27:13 AM 47.0528 -122.2419 173° South 480 552 33,000  Level Seattle Center
Sun 09:28:13 AM 46.9194 -122.2200 174° South 480 552 33,000  Level Seattle Center
Sun 09:29:14 AM 46.7833 -122.1961 173° South 488 562 33,000  Level Seattle Center
Sun 09:30:14 AM 46.6486 -122.1731 173° South 489 563 33,000  Level Seattle Center
Sun 09:31:15 AM 46.5133 -122.1489 173° South 489 563 33,000  Level Seattle Center
Sun 09:32:15 AM 46.3761 -122.1261 173° South 495 570 33,000  Level Seattle Center
Sun 09:33:16 AM 46.2386 -122.0944 171° South 496 571 33,000  Level Seattle Center
Sun 09:34:16 AM 46.0944 -122.0603 171° South 502 578 33,000  Level Seattle Center
Sun 09:35:17 AM 45.9561 -122.0264 170° South 503 579 33,000  Level Seattle Center
Sun 09:36:17 AM 45.8144 -121.9922 170° South 509 586 33,000  Level Seattle Center
Sun 09:37:18 AM 45.6761 -121.9608 171° South 509 586 33,000  Level Seattle Center
Sun 09:38:18 AM 45.5342 -121.9272 171° South 509 586 33,000  Level Seattle Center
Sun 09:39:19 AM 45.3942 -121.8942 171° South 509 586 33,000  Level Seattle Center
Sun 09:40:19 AM 45.2586 -121.8606 170° South 507 583 33,000  Level Seattle Center
Sun 09:41:20 AM 45.1203 -121.8294 171° South 506 582 33,000  Level Seattle Center
Sun 09:42:20 AM 44.9808 -121.7983 171° South 506 582 33,000  Level Seattle Center
Sun 09:43:21 AM 44.8378 -121.7650 171° South 507 583 33,000  Level Seattle Center
Sun 09:44:22 AM 44.6986 -121.7339 171° South 507 583 33,000  Level Seattle Center
Sun 09:45:22 AM 44.5594 -121.7028 171° South 508 585 33,000  Level Seattle Center
Sun 09:46:23 AM 44.4197 -121.6719 171° South 509 586 33,000  Level Seattle Center
Sun 09:47:23 AM 44.2842 -121.6403 171° South 509 586 33,000  Level Seattle Center
Sun 09:48:24 AM 44.1442 -121.6064 170° South 510 587 33,000  Level Seattle Center
Sun 09:49:24 AM 43.9769 -121.5675 170° South 510 587 33,000  Level Seattle Center
Sun 09:50:25 AM 43.8350 -121.5353 171° South 510 587 33,000  Level Seattle Center
Sun 09:51:25 AM 43.7128 -121.5081 171° South 511 588 33,000  Level Seattle Center
Sun 09:52:26 AM 43.5731 -121.4769 171° South 510 587 33,000  Level Seattle Center
Sun 09:53:26 AM 43.4336 -121.4436 170° South 510 587 33,000  Level Seattle Center
Sun 09:54:27 AM 43.2942 -121.4117 171° South 509 586 33,000  Level Seattle Center
Sun 09:55:27 AM 43.1547 -121.3822 171° South 509 586 33,000  Level Seattle Center
Sun 09:56:27 AM 43.0147 -121.3522 171° South 509 586 33,000  Level Seattle Center
Sun 09:57:28 AM 42.8747 -121.3206 171° South 509 586 33,000  Level Seattle Center
Sun 09:58:28 AM 42.7344 -121.2878 170° South 509 586 33,000  Level Seattle Center
Sun 09:59:29 AM 42.5933 -121.2592 172° South 512 589 33,000  Level Seattle Center
Sun 10:00:29 AM 42.4517 -121.2289 171° South 514 592 33,000  Level Seattle Center
Sun 10:01:30 AM 42.2803 -121.1900 170° South 519 597 33,000  Level Seattle Center
Sun 10:02:30 AM 42.1644 -121.1672 172° South 524 603 33,000  Level Seattle Center
Sun 10:03:30 AM 42.0197 -121.1353 171° South 526 605 33,000  Level Seattle Center
Sun 10:04:31 AM 41.8761 -121.1053 171° South 520 598 33,000  Level Seattle Center
Sun 10:05:31 AM 41.7011 -121.0669 171° South 527 606 33,000  Level Seattle Center
Sun 10:06:32 AM 41.5572 -121.0372 171° South 522 601 33,000  Level Seattle Center
Sun 10:07:32 AM 41.4119 -121.0053 171° South 524 603 33,000  Level Seattle Center
Sun 10:08:33 AM 41.2678 -120.9756 171° South 524 603 33,000  Level Seattle Center
Sun 10:09:33 AM 41.1228 -120.9431 170° South 526 605 33,000  Level Seattle Center
Sun 10:10:34 AM 40.9775 -120.9142 171° South 527 606 33,000  Level Seattle Center
Sun 10:11:34 AM 40.8319 -120.9036 177° South 526 605 33,000  Level Seattle Center
Sun 10:12:34 AM 40.6864 -120.8919 177° South 521 600 33,000  Level Seattle Center
Sun 10:13:35 AM 40.5461 -120.8819 177° South 522 601 33,000  Level Seattle Center
Sun 10:14:07 AM 40.4564 -120.8719 175° South 524 603 33,000  Level Oakland Center
Sun 10:15:08 AM 40.3106 -120.8625 177° South 524 603 33,000  Level Oakland Center
Sun 10:16:08 AM 40.1642 -120.8511 177° South 524 603 33,000  Level Oakland Center
Sun 10:17:09 AM 40.0192 -120.8403 177° South 523 602 33,000  Level Oakland Center
Sun 10:18:10 AM 39.8775 -120.8289 176° South 522 601 33,000  Level Oakland Center
Sun 10:19:10 AM 39.7319 -120.8183 177° South 523 602 33,000  Level Oakland Center
Sun 10:20:11 AM 39.5858 -120.8053 176° South 523 602 33,000  Level Oakland Center
Sun 10:21:12 AM 39.4414 -120.7956 177° South 521 600 33,000  Level Oakland Center
Sun 10:22:12 AM 39.2972 -120.7842 177° South 520 598 33,000  Level Oakland Center
Sun 10:23:13 AM 39.1517 -120.7731 177° South 519 597 33,000  Level Oakland Center
Sun 10:24:14 AM 39.0075 -120.7617 176° South 519 597 33,000  Level Oakland Center
Sun 10:25:14 AM 38.8636 -120.7517 177° South 517 595 33,000  Level Oakland Center
Sun 10:26:15 AM 38.7200 -120.7417 177° South 517 595 33,000  Level Oakland Center
Sun 10:27:16 AM 38.5764 -120.7306 177° South 516 594 33,000  Level Oakland Center
Sun 10:28:16 AM 38.4331 -120.7208 177° South 514 592 33,000  Level Oakland Center
Sun 10:29:18 AM 38.2906 -120.7094 176° South 509 586 33,000 -295 Level Oakland Center
Sun 10:30:18 AM 38.1508 -120.6992 177° South 504 580 32,400 -800 Descending Oakland Center
Sun 10:31:18 AM 38.0117 -120.6900 177° South 502 578 31,400 -1,240 Descending Oakland Center
Sun 10:32:19 AM 37.8761 -120.6800 177° South 491 565 29,900 -984 Descending Oakland Center
Sun 10:33:20 AM 37.7408 -120.6689 176° South 486 559 29,400 -443 Descending Oakland Center
Sun 10:34:21 AM 37.6042 -120.6606 177° South 488 562 29,000 -198 Descending Oakland Center
Sun 10:35:21 AM 37.4664 -120.6494 176° South 490 564 29,000  Level Oakland Center
Sun 10:36:22 AM 37.3281 -120.6372 176° South 494 568 29,000  Level Oakland Center
Sun 10:37:23 AM 37.1922 -120.5861 163° South 509 586 29,000  Level Oakland Center
Sun 10:38:24 AM 37.0564 -120.5314 162° South 509 586 29,000  Level Oakland Center
Sun 10:39:24 AM 36.9214 -120.4769 162° South 509 586 29,000  Level Oakland Center
Sun 10:40:25 AM 36.7761 -120.4214 163° South 508 585 29,000  Level Oakland Center
Sun 10:41:26 AM 36.6428 -120.3669 162° South 506 582 29,000  Level Oakland Center
Sun 10:42:27 AM 36.5081 -120.3144 163° South 506 582 29,000  Level Oakland Center
Sun 10:43:27 AM 36.3750 -120.2617 162° South 504 580 29,000  Level Oakland Center
Sun 10:44:28 AM 36.2419 -120.2089 162° South 504 580 29,000  Level Oakland Center
Sun 10:45:29 AM 36.1089 -120.1581 163° South 502 578 29,000  Level Oakland Center
Sun 10:46:30 AM 35.9753 -120.1067 163° South 502 578 29,000  Level Oakland Center
Sun 10:47:31 AM 35.8439 -120.0553 162° South 496 571 29,000  Level Oakland Center
Sun 10:48:31 AM 35.7097 -120.0036 163° South 497 572 29,000  Level Oakland Center
Sun 10:49:32 AM 35.5614 -119.9036 151° Southeast 509 586 29,000  Level Oakland Center
Sun 10:50:33 AM 35.4456 -119.8036 145° Southeast 509 586 29,000  Level Oakland Center
Sun 10:51:33 AM 35.3514 -119.7222 145° Southeast 505 581 29,000 -50 Level Los Center
Sun 10:52:34 AM 35.2153 -119.6061 145° Southeast 500 575 28,900 -541 Descending Los Center
Sun 10:53:35 AM 35.1036 -119.5111 145° Southeast 494 568 27,900 -1,033 Descending Los Center
Sun 10:54:36 AM 34.9947 -119.4192 145° Southeast 481 554 26,800 -1,328 Descending Los Center
Sun 10:55:37 AM 34.8900 -119.3281 144° Southeast 470 541 25,200 -1,707 Descending Los Center
Sun 10:56:39 AM 34.7836 -119.2406 146° Southeast 466 536 23,300 -1,707 Descending Los Center
Sun 10:57:40 AM 34.6831 -119.1561 145° Southeast 444 511 21,700 -2,016 Descending Los Center
Sun 10:58:41 AM 34.5808 -119.0689 145° Southeast 425 489 19,200 -2,488 Descending Los Center
Sun 10:59:43 AM 34.4858 -118.9900 146° Southeast 416 479 16,600 -2,341 Descending Los Center
Sun 11:00:44 AM 34.3925 -118.9086 144° Southeast 412 474 14,400 -2,016 Descending Los Center
Sun 11:01:45 AM 34.2958 -118.8572 156° South 376 433 12,500 -1,230 Descending Los Center
Sun 11:02:46 AM 34.1961 -118.8208 163° South 374 430 11,900 -1,024 Descending Los Center
Sun 11:03:48 AM 34.1011 -118.7875 164° South 359 413 10,400 -927 Descending Los Center
Sun 11:04:49 AM 34.0339 -118.7069 135° Southeast 310 357 10,000 -492 Descending Los Center
Sun 11:05:50 AM 34.0256 -118.6178 96° East 270 311 9,400 -976 Descending Los Center
Sun 11:06:52 AM 34.0164 -118.5261 97° East 258 297 8,000 -1,171 Descending Los Center
Sun 11:07:53 AM 34.0122 -118.4483 94° East 235 270 7,000 -590 Descending Los Center
Sun 11:08:54 AM 34.0214 -118.3722 82° East 230 265 6,800 -537 Descending Los Center
Sun 11:09:56 AM 34.0319 -118.2981 80° East 229 264 5,900 -1,122 Descending Los Center
Sun 11:10:57 AM 34.0286 -118.2303 93° East 237 273 4,500 -1,268 Descending Los Center
Sun 11:11:59 AM 33.9756 -118.2444 192° South 221 254 3,300 -1,122 Descending Los Center
Sun 11:13:00 AM 33.9625 -118.3022 255° West 195 224 2,200 -1,122 Descending Los Center
Sun 11:14:02 AM 33.9578 -118.3556 264° West 174 200 1,000 -1,024 Descending Los Center
Sun 11:15:03 AM 33.9525 -118.4072 263° West 164 189 100 -885 Descending Los Center
Sun 11:17:00 AM 33.9425 -118.4081 228° Southwest  Level Estimated

Login

Don't have an account? Register now (free) for customized features, flight alerts, and more!